• Join FlightAware (Why Join?)
  • Login
  • US Flag 
Gobble Gobble! 
03:11AM EST


 

Airport Tracker/Info


-or-


 

Live Flight TrackerFlight Track Log ✈ SKW5631 ✈ 03-May-2014 ✈ KSFO - KBUR

Flight Track Log - Related Links

Times and Time Zones

All times are in EDT time to prevent confusion due to time zone crossing. See the SKW5631 flight status page for this flight to view local times or setup timezone preferences in your user account.

Time Position Orientation Groundspeed Altitude Reporting Facility
EDT Latitude Longitude Course Direction KTS MPH feet Rate Location/Type
09:45PM 37.6500 -122.4167 135° Southeast 164 189 2,700  Level Northern Cal TRACON
09:46PM 37.4284 -122.3517 113° Southeast  Level FlightAware Approximate
09:46PM 37.6667 -122.4833 288° West 229 264 4,700  Level Northern Cal TRACON
09:47PM 37.3456 -122.2213 136° Southeast  Level FlightAware Approximate
09:47PM 37.6167 -122.5500 227° Southwest 280 322 7,600  Level Northern Cal TRACON
09:48PM 37.2576 -122.0948 130° Southeast  Level FlightAware Approximate
09:48PM 37.5611 -122.4975 143° Southeast 287 330 10,400  Level Oakland Center
09:49PM 37.1661 -121.9714 133° Southeast  Level FlightAware Approximate
09:49PM 37.4961 -122.4264 139° Southeast 307 353 12,800  Level Oakland Center
09:50PM 37.0716 -121.8520 135° Southeast  Level FlightAware Approximate
09:50PM 37.4269 -122.3500 139° Southeast 330 380 15,200  Level Oakland Center
09:51PM 37.3414 -122.2553 139° Southeast 340 391 17,800 2,400 Climbing Oakland Center
09:52PM 37.2656 -122.1717 139° Southeast 358 412 20,200 1,920 Climbing Oakland Center
09:53PM 37.1853 -122.0856 139° Southeast 376 433 21,800 1,680 Climbing Oakland Center
09:54PM 37.1022 -121.9931 138° Southeast 396 456 23,700 1,800 Climbing Oakland Center
09:55PM 37.0167 -121.8989 139° Southeast 409 471 25,500 1,680 Climbing Oakland Center
09:56PM 36.9292 -121.8050 139° Southeast 414 476 27,200 1,560 Climbing Oakland Center
09:57PM 36.8397 -121.7114 140° Southeast 417 480 28,700 1,260 Climbing Oakland Center
09:58PM 36.7533 -121.6172 139° Southeast 428 493 29,800 1,080 Climbing Oakland Center
09:59PM 36.6611 -121.5161 139° Southeast 439 505 31,000 1,140 Climbing Oakland Center
10:00PM 36.5678 -121.4139 139° Southeast 446 513 32,200 960 Climbing Oakland Center
10:01PM 36.4528 -121.2944 140° Southeast 448 516 33,000 360 Climbing Oakland Center
10:02PM 36.3556 -121.1903 139° Southeast 460 529 33,000  Level Oakland Center
10:03PM 36.2556 -121.0828 139° Southeast 469 540 33,000  Level Oakland Center
10:04PM 36.1556 -120.9775 140° Southeast 472 543 33,000  Level Oakland Center
10:05PM 36.0567 -120.8717 139° Southeast 472 543 33,000  Level Oakland Center
10:06PM 35.9583 -120.7675 139° Southeast 470 541 33,000  Level Oakland Center
10:07PM 35.8600 -120.6628 139° Southeast 469 540 33,000  Level Oakland Center
10:08PM 35.7614 -120.5594 140° Southeast 468 539 33,000  Level Oakland Center
10:09PM 35.6619 -120.4558 140° Southeast 468 539 33,000  Level Oakland Center
10:10PM 35.5631 -120.3514 139° Southeast 467 537 33,000  Level Oakland Center
10:11PM 35.4708 -120.2564 140° Southeast 467 537 33,000  Level Oakland Center
10:12PM 35.3597 -120.1392 139° Southeast 468 539 33,000 -420 Level Oakland Center
10:13PM 35.2586 -120.0350 140° Southeast 468 539 32,200 -1,140 Descending Los Angeles Center
10:14PM 35.1567 -119.9322 140° Southeast 471 542 30,700 -1,500 Descending Los Angeles Center
10:15PM 35.0611 -119.8225 137° Southeast 471 542 29,200 -1,620 Descending Los Angeles Center
10:16PM 34.9567 -119.6800 132° Southeast 471 542 27,400 -1,620 Descending Los Angeles Center
10:17PM 34.8700 -119.5642 132° Southeast 466 536 25,900 -1,920 Descending Los Angeles Center
10:18PM 34.7850 -119.4508 132° Southeast 455 524 23,600 -2,820 Descending Los Angeles Center
10:19PM 34.7047 -119.3411 132° Southeast 441 507 20,200 -3,360 Descending Los Angeles Center
10:20PM 34.6264 -119.2342 132° Southeast 426 490 16,800 -3,180 Descending Los Angeles Center
10:21PM 34.5642 -119.1244 125° Southeast 410 472 13,800 -2,760 Descending Los Angeles Center
10:22PM 34.5056 -119.0125 122° Southeast 387 445 11,200 -1,680 Descending Los Angeles Center
10:23PM 34.4278 -118.9519 147° Southeast 326 375 10,400 -1,320 Descending Los Angeles Center
10:24PM 34.3525 -118.8731 139° Southeast 306 352 8,600 -1,620 Descending Los Angeles Center
10:25PM 34.3008 -118.8011 131° Southeast 285 328 7,100 -1,500 Descending Los Angeles Center
10:26PM 34.2614 -118.7247 122° Southeast 271 312 5,600 -1,380 Descending Los Angeles Center
10:27PM 34.2247 -118.6547 122° Southeast 254 292 4,400 -960 Descending Los Angeles Center
10:29PM 34.2011 -118.5914 114° Southeast 221 254 3,700 -720 Descending Los Angeles Center
10:30PM 34.1997 -118.5236 91° East 206 237 3,000 -720 Descending Los Angeles Center
10:31PM 34.1997 -118.4619 90° East 192 221 2,300 -780 Descending Los Angeles Center
10:32PM 34.1997 -118.4150 90° East 160 184 1,500 -600 Descending Los Angeles Center
10:33PM 34.1978 -118.3636 93° East 150 173 1,100 -420 Descending Los Angeles Center